Tiempo atmosférico en la estación meteorológica de Estepona, Málaga (15 m.)



Fecha
DESCASC
Temp. máxima en grados centígrados (hora)
DESCASC
Temp. mínima en grados centígrados (hora)
DESCASC
Temp. media en grados centígrados
DESCASC
Racha de viento máxima en m/sg (hora)
DESCASC
Velocidad máxima media en intervalos de 10 minutos(hora)
DESCASC
Precipitaciones diarias en mm
DESCASC
Precipitaciones de 00:00 a 06:00 en mm
DESCASC
Precipitaciones de 06:00 a 12:00 en mm
DESCASC
Precipitaciones de 12:00 a 18:00 en mm
DESCASC
Precipitaciones de 18:00 a 24:00 en mm
DESCASC
22-01-2020 13 (15:00) 9.5 (03:30) 11.3 8.33 (01:00) 3.89 (21:20) -- -- -- -- --
21-01-2020 16.2 (13:20) 8.2 (05:50) 12.2 9.17 (23:59) 3.89 (23:59) -- -- -- -- --
20-01-2020 12.9 (12:20) 9.1 (07:50) 11 11.11 (22:40) 5.28 (22:40) -- -- -- -- --
19-01-2020 18.5 (14:40) 11.5 (00:00) 15 13.06 (02:20) 5.83 (10:20) -- -- -- -- --
18-01-2020 18.1 (15:00) 11.1 (00:00) 14.6 9.72 (23:40) 5 (23:30) -- -- -- -- --
17-01-2020 20.7 (14:30) 9.4 (00:00) 15.1 10.28 (13:50) 5.28 (13:50) -- -- -- -- --
16-01-2020 18.3 (14:30) 10.8 (00:00) 14.5 5.28 (00:20) 1.67 (00:20) -- -- -- -- --
15-01-2020 19 (14:20) 8.8 (00:00) 13.9 5 (23:40) 2.78 (13:10) -- -- -- -- --
14-01-2020 18 (17:00) 8.6 (00:00) 13.3 10.28 (12:40) 5.83 (13:50) -- -- -- -- --
13-01-2020 16.9 (14:40) 10.2 (00:00) 13.5 5.28 (10:50) 3.61 (11:30) -- -- -- -- --
12-01-2020 17.8 (14:20) 11 (00:00) 14.4 5.28 (01:50) 2.78 (01:50) -- -- -- -- --
11-01-2020 17.5 (14:20) 10 (00:00) 13.8 5.56 (01:50) 2.78 (18:30) -- -- -- -- --
10-01-2020 19 (14:40) 9.5 (00:00) 14.3 9.72 (13:30) 5.83 (11:50) -- -- -- -- --
09-01-2020 17.2 (14:40) 10.5 (00:00) 13.9 6.39 (02:10) 3.33 (13:10) -- -- -- -- --
08-01-2020 16.4 (14:20) 10.5 (00:00) 13.4 5.28 (23:00) 2.5 (22:50) -- -- -- -- --
07-01-2020 16.5 (14:20) 10.6 (00:00) 13.6 6.39 (12:10) 3.61 (11:50) -- -- -- -- --
06-01-2020 16.3 (14:00) 11.6 (00:00) 13.9 8.33 (14:00) 5 (14:20) -- -- -- -- --
05-01-2020 15.4 (13:20) 12.1 (00:00) 13.8 12.22 (00:20) 7.5 (00:30) -- -- -- -- --
04-01-2020 16.4 (13:40) 10.4 (00:00) 13.4 11.67 (23:40) 7.22 (23:40) -- -- -- -- --
03-01-2020 18.1 (14:10) 11.2 (00:00) 14.7 -- (--) -- (--) -- -- -- -- --
02-01-2020 17.2 (14:30) 11.2 (00:00) 14.2 5 (12:30) 2.78 (13:10) -- -- -- -- --
01-01-2020 17.3 (14:20) 11.9 (00:00) 14.6 6.11 (01:20) 3.06 (00:40) -- -- -- -- --
31-12-2019 15.4 (16:30) 12.4 (00:00) 13.9 10.83 (14:30) 6.67 (16:50) -- -- -- -- --
30-12-2019 16.1 (13:10) 13 (00:00) 14.6 11.39 (13:30) 6.94 (16:50) -- -- -- -- --
29-12-2019 15.9 (13:20) 12.9 (00:00) 14.4 11.94 (11:00) 6.67 (13:40) -- -- -- -- --
28-12-2019 16.7 (14:20) 13.4 (00:00) 15.1 9.17 (14:20) 5.83 (12:50) -- -- -- -- --
27-12-2019 17.6 (11:10) 10.8 (00:00) 14.2 10.28 (12:40) 6.94 (12:40) -- -- -- -- --
26-12-2019 17.6 (14:30) 11 (00:00) 14.3 3.33 (13:00) 1.94 (13:00) -- -- -- -- --
25-12-2019 20.9 (14:20) 11.1 (00:00) 16 2.5 (12:40) 1.67 (07:00) -- -- -- -- --
24-12-2019 21.1 (11:30) 11.7 (00:00) 16.4 8.61 (14:20) 5.28 (12:00) -- -- -- -- --

Gráficas

Temp. máximas Temp. mínimas Temp. medias Precipitaciones Rachas de viento máximas Velocidades máximas media en intervalos de 10 minutos

Datos horarios

Fecha y hora oficial Temperatura (ºC) Velocidad del viento (km/h) Dirección del viento Racha (km/h) Dirección de racha Precipitación (mm) Presión (hPa) Tendencia (hPa) Humedad (%)
2020-01-22 23:00:00 11.8 6 Este 20 Este -- 1016.2 1 78
2020-01-22 22:00:00 11.6 7 Nordeste -- -- -- 1016.2 1.3 79
2020-01-22 21:00:00 11 10 Nordeste 28 Este -- 1015.6 1.2 78
2020-01-22 20:00:00 11.6 7 Nordeste 20 Nordeste -- 1015.2 0.9 71
2020-01-22 19:00:00 11.7 8 Nordeste 18 Nordeste -- 1014.9 0.7 71
2020-01-22 18:00:00 11.8 8 Nordeste 19 Este -- 1014.4 0.2 73
2020-01-22 17:00:00 12.4 9 Nordeste 18 Nordeste -- 1014.3 -0.6 72
2020-01-22 16:00:00 12.3 9 Nordeste 23 Nordeste -- 1014.2 -1.8 76
2020-01-22 15:00:00 13 9 Nordeste 19 Nordeste -- 1014.2 -1.6 82
2020-01-22 14:00:00 11.2 9 Nordeste 17 Nordeste -- 1014.9 -1.1 83
2020-01-22 13:00:00 10.6 6 Nordeste 18 Nordeste -- 1016 1.1 82
2020-01-22 12:00:00 10.5 6 Nordeste 16 Nordeste -- 1015.8 1.4 83
2020-01-22 11:00:00 10.6 4 Sur 12 Nordeste -- 1016 2.1 82
2020-01-22 10:00:00 10.5 3 Nordeste 12 Nordeste -- 1014.9 1.4 83
2020-01-22 09:00:00 9.7 5 Nordeste 15 Nordeste -- 1014.4 1.3 83
2020-01-22 08:00:00 9.7 2 Noroeste 11 Nordeste -- 1013.9 0.7 83
2020-01-22 07:00:00 9.8 4 Noroeste 14 Oeste -- 1013.5 -0.2 84
2020-01-22 06:00:00 9.6 3 Oeste 23 Nordeste -- 1013.1 -0.4 84
2020-01-22 05:00:00 9.6 6 Nordeste 18 Nordeste -- 1013.2 -0.3 84
2020-01-22 04:00:00 9.8 6 Norte 19 Nordeste -- 1013.7 0.1 84
2020-01-22 03:00:00 9.7 4 Este 15 Nordeste -- 1013.5 0.2 82
2020-01-22 02:00:00 9.8 9 Nordeste 23 Este -- 1013.5 0.3 82
2020-01-22 01:00:00 10.3 12 Nordeste 30 Este -- 1013.6 0.8 81
2020-01-22 00:00:00 11 14 Nordeste 33 Este -- 1013.3 0.6 79
2020-01-21 23:00:00 10.8 9 Nordeste 21 Nordeste -- 1013.2 1.1 78
2020-01-21 22:00:00 11.2 8 Nordeste 19 Este -- 1012.8 1.4 78
2020-01-21 21:00:00 12.2 7 Nordeste 14 Nordeste -- 1012.7 2.1 71
2020-01-21 20:00:00 12.7 0 Calma 13 Oeste -- 1012.1 2 57
2020-01-21 19:00:00 13.1 9 Oeste 19 Oeste -- 1011.4 1.3 56
2020-01-21 18:00:00 14.1 11 Sudoeste 21 Oeste -- 1010.6 0.5 53
2020-01-21 17:00:00 15 2 Sur 16 Este -- 1010.1 -0.2 51
2020-01-21 16:00:00 14.8 9 Este 18 Este -- 1010.1 -0.8 53
2020-01-21 15:00:00 14.2 8 Nordeste 18 Este -- 1010.1 -1.5 52
2020-01-21 14:00:00 15.5 7 Sudoeste 25 Sudoeste -- 1010.3 -1.1 46
2020-01-21 13:00:00 15.3 13 Sudoeste 22 Sudoeste -- 1010.9 -0.7 49
2020-01-21 12:00:00 14 6 Sudoeste 13 Sudoeste -- 1011.6 0 53
2020-01-21 11:00:00 12.7 7 Oeste 14 Oeste -- 1011.4 0.4 56
2020-01-21 10:00:00 10.8 4 Nordeste 13 Nordeste -- 1011.6 0 68
2020-01-21 09:00:00 9.3 2 Norte 13 Noroeste -- 1011.6 0.2 65
2020-01-21 08:00:00 10 9 Oeste 17 Oeste -- 1011 -0.9 63
2020-01-21 07:00:00 8.3 2 Oeste 5 Norte -- 1011.6 -0.5 72
2020-01-21 06:00:00 8.4 3 Oeste 9 Noroeste -- 1011.4 -1 70
2020-01-21 05:00:00 8.4 2 Noroeste 6 Noroeste -- 1011.9 -1 73
2020-01-21 04:00:00 9.1 4 Noroeste 7 Oeste -- 1012.1 -1.4 74
2020-01-21 03:00:00 9.1 3 Noroeste 8 Oeste -- 1012.4 -1.5 76
2020-01-21 02:00:00 9.3 3 Noroeste 9 Nordeste -- 1012.9 -0.7 79
2020-01-21 01:00:00 9.7 4 Norte 11 Nordeste -- 1013.5 0.4 79
2020-01-21 00:00:00 9.7 3 Norte 29 Este -- 1013.9 1.2 78
2020-01-20 23:00:00 10.8 12 Nordeste 40 Este -- 1013.6 0.7 74
2020-01-20 22:00:00 11.1 10 Nordeste 21 Nordeste -- 1013.1 0.5 59
2020-01-20 21:00:00 10.6 9 Nordeste 22 Nordeste -- 1012.7 0.3 62
2020-01-20 20:00:00 9.8 6 Nordeste 13 Nordeste -- 1012.9 0.3 70
2020-01-20 19:00:00 9.3 3 Nordeste 14 Nordeste -- 1012.6 0.6 73
2020-01-20 18:00:00 9.5 8 Nordeste 17 Nordeste -- 1012.4 -0.1 76
2020-01-20 17:00:00 9.9 6 Nordeste 15 Este -- 1012.6 -0.3 77
2020-01-20 16:00:00 9.7 5 Nordeste 14 Nordeste -- 1012 -0.8 75
2020-01-20 15:00:00 9.7 8 Nordeste 19 Este -- 1012.5 -0.5 72
2020-01-20 14:00:00 10.6 10 Nordeste 29 Este -- 1012.9 -0.2 64
2020-01-20 13:00:00 12.5 12 Este 19 Este -- 1012.8 0.1 49
2020-01-20 12:00:00 12.1 4 Oeste 11 Oeste -- 1013 0.2 48
2020-01-20 11:00:00 11 6 Oeste 12 Sudoeste -- 1013.1 0.4 51
2020-01-20 10:00:00 10.2 3 Oeste 13 Nordeste -- 1012.7 0.3 52
2020-01-20 09:00:00 9.4 7 Nordeste 18 Nordeste -- 1012.8 0.1 50
2020-01-20 08:00:00 9.1 3 Nordeste 12 Nordeste -- 1012.7 -0.2 49
2020-01-20 07:00:00 9.9 5 Nordeste 18 Nordeste -- 1012.4 -1 46
2020-01-20 06:00:00 10.4 7 Nordeste 18 Nordeste -- 1012.7 -0.8 46
2020-01-20 05:00:00 11 9 Nordeste 21 Nordeste -- 1012.9 -1.1 47
2020-01-20 04:00:00 11.2 8 Nordeste 21 Nordeste -- 1013.4 -0.8 48
2020-01-20 03:00:00 10.9 9 Nordeste 22 Nordeste -- 1013.5 -0.2 51
2020-01-20 02:00:00 10.4 9 Nordeste 29 Este -- 1014 0.3 61
2020-01-20 01:00:00 11.9 11 Nordeste 28 Este -- 1014.2 0.6 45
2020-01-20 00:00:00 11.8 10 Nordeste 25 Nordeste -- 1013.7 -0.3 42
2020-01-19 23:00:00 11.6 9 Nordeste 30 Nordeste -- 1013.7 -0.9 45
2020-01-19 22:00:00 12.2 10 Nordeste 32 Nordeste -- 1013.6 -1.8 44
2020-01-19 21:00:00 12.6 8 Nordeste 28 Nordeste -- 1014 -1.6 42
2020-01-19 20:00:00 12.5 10 Nordeste 24 Nordeste -- 1014.6 -1.1 45
2020-01-19 19:00:00 12.9 7 Nordeste 23 Noroeste -- 1015.4 -0.3 48
2020-01-19 18:00:00 14.4 5 Sur 24 Nordeste -- 1015.6 -0.3 40
2020-01-19 17:00:00 15 7 Nordeste 27 Nordeste -- 1015.7 -0.8 40
2020-01-19 16:00:00 15.7 4 Oeste 24 Oeste -- 1015.7 -1.8 39
2020-01-19 15:00:00 17.9 6 Oeste 28 Noroeste -- 1015.9 -2.6 33
2020-01-19 14:00:00 17.4 10 Oeste 31 Oeste -- 1016.5 -2.6 35
2020-01-19 13:00:00 16.6 7 Noroeste 28 Nordeste -- 1017.5 -1.5 39
2020-01-19 12:00:00 15.9 7 Norte 27 Oeste -- 1018.5 -1 43
2020-01-19 11:00:00 14.7 18 Oeste 38 Sudoeste -- 1019.1 0 58
2020-01-19 10:00:00 13.3 19 Sudoeste 32 Sudoeste -- 1019 0.4 62
2020-01-19 09:00:00 12.4 11 Oeste 26 Oeste -- 1019.5 0.5 60
2020-01-19 08:00:00 12.7 12 Oeste 29 Oeste -- 1019.1 0.1 59
2020-01-19 07:00:00 13.2 17 Sudoeste 30 Oeste -- 1018.6 -0.7 61
2020-01-19 06:00:00 13.4 11 Oeste 35 Oeste -- 1019 -0.9 58
2020-01-19 05:00:00 14.1 17 Oeste 47 Oeste -- 1019 -1.4 57
2020-01-19 04:00:00 14.7 14 Oeste 27 Oeste -- 1019.3 -2.6 53
2020-01-19 03:00:00 16 7 Oeste 47 Oeste -- 1019.9 -2.9 54
2020-01-19 02:00:00 15.5 15 Oeste 36 Oeste -- 1020.4 -3.3 82
2020-01-19 01:00:00 16.2 14 Oeste 34 Sudoeste -- 1021.9 -2.6 84
2020-01-19 00:00:00 16.1 17 Oeste 35 Oeste -- 1022.8 -2.7 85
2020-01-18 23:00:00 15.8 14 Sudoeste 30 Oeste -- 1023.7 -2.5 86
2020-01-18 22:00:00 15.6 13 Sudoeste 20 Sudoeste -- 1024.5 -2.2 85
2020-01-18 21:00:00 15.4 7 Sudoeste 13 Sudoeste -- 1025.5 -1.4 84
2020-01-18 20:00:00 15.5 8 Sudoeste 14 Oeste -- 1026.2 -1.3 82
2020-01-18 19:00:00 15.7 8 Oeste 24 Oeste -- 1026.7 -0.9 78
2020-01-18 18:00:00 16.6 12 Oeste 25 Oeste -- 1026.9 -1.1 72
2020-01-18 17:00:00 17.3 15 Oeste 27 Oeste -- 1027.5 -1.3 68
2020-01-18 16:00:00 17.8 11 Oeste 23 Oeste -- 1027.6 -2.6 65
2020-01-18 15:00:00 17.8 8 Sudoeste 27 Oeste -- 1028 -3.4 66
2020-01-18 14:00:00 16.9 5 Este 13 Este -- 1028.8 -2.5 64
2020-01-18 13:00:00 16.9 6 Este 12 Nordeste -- 1030.2 -0.6 62
2020-01-18 12:00:00 16.3 6 Este 14 Nordeste -- 1031.4 1.1 63
2020-01-18 11:00:00 15.1 3 Este 10 Oeste -- 1031.3 1.4 61
2020-01-18 10:00:00 13.9 4 Oeste 9 Oeste -- 1030.8 1.3 62
2020-01-18 09:00:00 13 3 Noroeste 8 Oeste -- 1030.3 0.9 65
2020-01-18 08:00:00 11.6 4 Noroeste 6 Noroeste -- 1029.9 0.5 69
2020-01-18 07:00:00 11.6 0 Calma 8 Oeste -- 1029.5 -0.1 66
2020-01-18 06:00:00 11.5 3 Noroeste 5 Nordeste -- 1029.4 -0.5 70
2020-01-18 05:00:00 11.5 0 Calma 6 Oeste -- 1029.4 -0.5 70
2020-01-18 04:00:00 11.3 0 Calma 7 Nordeste -- 1029.6 -1.1 68
2020-01-18 03:00:00 11.5 5 Noroeste 7 Noroeste -- 1029.9 -0.9 70
2020-01-18 02:00:00 12.3 2 Oeste 6 Oeste -- 1029.9 -1 66
2020-01-18 01:00:00 13.5 3 Oeste 8 Norte -- 1030.7 -0.2 57
2020-01-18 00:00:00 13.2 3 Noroeste 7 Noroeste -- 1030.8 0.3 63
2020-01-17 23:00:00 13.3 0 Calma 9 Noroeste -- 1030.9 0.4 64
2020-01-17 22:00:00 13.8 3 Noroeste 7 Oeste -- 1030.9 1.1 64
2020-01-17 21:00:00 14.5 3 Noroeste 8 Oeste -- 1030.5 1.3 60
2020-01-17 20:00:00 14.4 2 Norte 9 Nordeste -- 1030.5 1.6 66
2020-01-17 19:00:00 16.3 2 Norte 15 Oeste -- 1029.8 1 63
2020-01-17 18:00:00 16.7 4 Sur 9 Sudoeste -- 1029.2 0.3 69
2020-01-17 17:00:00 17.7 5 Nordeste 17 Este -- 1028.9 -0.8 64
2020-01-17 16:00:00 18.7 9 Nordeste 32 Sudoeste -- 1028.8 -1.8 54
2020-01-17 15:00:00 20.7 15 Oeste 33 Sudoeste -- 1028.9 -2.5 50
2020-01-17 14:00:00 20.1 16 Oeste 37 Oeste -- 1029.7 -2.2 53
2020-01-17 13:00:00 19.3 14 Oeste 29 Sudoeste -- 1030.6 -0.7 51
2020-01-17 12:00:00 18 17 Oeste 28 Oeste -- 1031.4 0.6 52
2020-01-17 11:00:00 14.6 4 Este 6 Este -- 1031.9 1.4 51
2020-01-17 10:00:00 12.6 4 Nordeste 8 Nordeste -- 1031.3 1.5 56
2020-01-17 09:00:00 11.2 0 Calma 8 Noroeste -- 1030.8 1.4 65
2020-01-17 08:00:00 9.9 4 Norte 7 Norte -- 1030.5 1.4 70
2020-01-17 07:00:00 9.5 3 Norte 8 Nordeste -- 1029.8 0.2 73
2020-01-17 06:00:00 9.9 4 Oeste 8 Noroeste -- 1029.4 0 74
2020-01-17 05:00:00 10.5 2 Norte 6 Noroeste -- 1029.1 -0.4 78
2020-01-17 04:00:00 10.3 0 Calma 8 Norte -- 1029.6 -0.1 78
2020-01-17 03:00:00 9.9 3 Norte 6 Nordeste -- 1029.4 -0.2 80
2020-01-17 02:00:00 10.1 3 Norte 7 Noroeste -- 1029.5 0.2 81
2020-01-17 01:00:00 10.3 3 Oeste 5 Este -- 1029.7 0.7 80
2020-01-17 00:00:00 11.3 3 Norte 7 Norte -- 1029.6 0.8 80
2020-01-16 23:00:00 10.9 3 Nordeste 6 Norte -- 1029.3 1 81
2020-01-16 22:00:00 11.6 0 Calma 5 Oeste -- 1029 1 81
2020-01-16 21:00:00 12.6 3 Oeste 8 Oeste -- 1028.8 1.3 80
2020-01-16 20:00:00 13.1 3 Oeste 7 Oeste -- 1028.3 1 78
2020-01-16 19:00:00 13.6 4 Sudoeste 7 Oeste -- 1028 0.9 74
2020-01-16 18:00:00 15.3 3 Sudoeste 6 Sudoeste -- 1027.5 0.2 71
2020-01-16 17:00:00 16.1 4 Sudoeste 8 Sudoeste -- 1027.3 -0.4 68
2020-01-16 16:00:00 16.7 4 Sur 9 Sudoeste -- 1027.1 -1 65
2020-01-16 15:00:00 17.8 4 Sudoeste 10 Sur -- 1027.3 -1.5 60
2020-01-16 14:00:00 17.5 5 Sur 9 Sur -- 1027.7 -0.9 60
2020-01-16 13:00:00 16.3 4 Sudeste 8 Sudeste -- 1028.1 0 60
2020-01-16 12:00:00 16.3 3 Sudeste 6 Sur -- 1028.8 1.5 58
2020-01-16 11:00:00 15.6 3 Sur 6 Sudoeste -- 1028.6 1.5 62
2020-01-16 10:00:00 12.6 0 Calma 4 Sudoeste -- 1028.1 1.5 76
2020-01-16 09:00:00 10.9 0 Calma 8 Norte -- 1027.3 0.9 77
2020-01-16 08:00:00 11.6 4 Noroeste 7 Noroeste -- 1027.1 0.3 78
2020-01-16 07:00:00 11.8 3 Noroeste 7 Norte -- 1026.6 -0.3 78
2020-01-16 06:00:00 11.9 3 Noroeste 9 Nordeste -- 1026.4 -0.5 77
2020-01-16 05:00:00 12.1 3 Noroeste 8 Nordeste -- 1026.8 -0.3 77
2020-01-16 04:00:00 12.2 3 Noroeste 8 Norte -- 1026.9 -0.5 76
2020-01-16 03:00:00 12.2 2 Noroeste 10 Norte -- 1026.9 -0.6 74
2020-01-16 02:00:00 12.3 3 Noroeste 11 Nordeste -- 1027.1 -0.1 73
2020-01-16 01:00:00 12.6 4 Norte 19 Nordeste -- 1027.4 0.6 72
2020-01-16 00:00:00 12 8 Nordeste 18 Nordeste -- 1027.5 0.5 56
2020-01-15 23:00:00 10.4 4 Nordeste 8 Nordeste -- 1027.2 0.4 62
2020-01-15 22:00:00 12.1 3 Noroeste 8 Noroeste -- 1026.8 0.4 67
2020-01-15 21:00:00 12 0 Calma 6 Norte -- 1027 0.8 71
2020-01-15 20:00:00 12.4 4 Nordeste 6 Este -- 1026.8 1 72
2020-01-15 19:00:00 13.8 0 Calma 8 Sudoeste -- 1026.4 0.9 67
2020-01-15 18:00:00 15.6 5 Oeste 9 Sudoeste -- 1026.2 0.8 62
2020-01-15 17:00:00 16.5 4 Sudoeste 9 Sudoeste -- 1025.8 0.1 61
2020-01-15 16:00:00 17.2 3 Sudoeste 9 Sur -- 1025.5 -0.7 58
2020-01-15 15:00:00 17.9 5 Sudoeste 15 Sudoeste -- 1025.4 -1.4 54
2020-01-15 14:00:00 18.6 7 Sudoeste 16 Sur -- 1025.7 -0.8 48
2020-01-15 13:00:00 17.1 9 Sudoeste 16 Sudoeste -- 1026.2 0.6 54
2020-01-15 12:00:00 15.8 2 Sur 6 Este -- 1026.8 1.7 60
2020-01-15 11:00:00 15.6 3 Sudeste 6 Este -- 1026.5 2 51
2020-01-15 10:00:00 12.4 3 Nordeste 7 Nordeste -- 1025.6 1.8 58
2020-01-15 09:00:00 9 2 Norte 7 Noroeste -- 1025.1 1.8 68
2020-01-15 08:00:00 8.9 3 Noroeste 5 Norte -- 1024.5 1.1 67
2020-01-15 07:00:00 9.1 0 Calma 4 Norte -- 1023.8 0.4 65
2020-01-15 06:00:00 10.1 3 Noroeste 7 Norte -- 1023.3 -0.4 61
2020-01-15 05:00:00 9.5 2 Norte 5 Norte -- 1023.4 -0.1 65
2020-01-15 04:00:00 10.1 3 Norte 8 Oeste -- 1023.4 -0.5 63
2020-01-15 03:00:00 10.5 4 Noroeste 8 Norte -- 1023.7 -0.2 64
2020-01-15 02:00:00 10.7 3 Oeste 6 Norte -- 1023.5 -0.2 60
2020-01-15 01:00:00 11 3 Norte 5 Norte -- 1023.9 0.3 60
2020-01-15 00:00:00 11.5 2 Norte -- -- -- 1023.9 0.3 59
2020-01-14 23:00:00 11.8 5 Oeste 7 Sudoeste -- 1023.7 0.3 58
2020-01-14 22:00:00 11.6 0 Calma 7 Oeste -- 1023.6 0.7 57
2020-01-14 21:00:00 12.7 5 Oeste 10 Sudoeste -- 1023.6 1.2 56
2020-01-14 20:00:00 14 0 Calma 18 Noroeste -- 1023.4 1.6 49
2020-01-14 19:00:00 14.7 10 Oeste 23 Oeste -- 1022.9 1.5 48
2020-01-14 18:00:00 16.7 10 Oeste 25 Oeste -- 1022.4 0.6 41
2020-01-14 17:00:00 18 12 Oeste 27 Oeste -- 1021.8 -0.7 35
2020-01-14 16:00:00 17.8 8 Sudoeste 30 Sudoeste -- 1021.4 -2.1 32
2020-01-14 15:00:00 17.4 15 Sudoeste 31 Sudoeste -- 1021.8 -2.5 40
2020-01-14 14:00:00 16.7 19 Oeste 34 Oeste -- 1022.5 -1.8 46
2020-01-14 13:00:00 16.4 15 Oeste 37 Sudoeste -- 1023.5 -0.3 48
2020-01-14 12:00:00 14.7 3 Sudoeste 14 Este -- 1024.3 1.3 60
2020-01-14 11:00:00 12.7 5 Este 12 Este -- 1024.3 1.4 70
2020-01-14 10:00:00 11 0 Calma 6 Nordeste -- 1023.8 1.3 77
2020-01-14 09:00:00 8.9 2 Nordeste 7 Norte -- 1023 0.9 81
2020-01-14 08:00:00 8.8 2 Norte 8 Noroeste -- 1022.9 0.8 81
2020-01-14 07:00:00 9 2 Norte 8 Noroeste -- 1022.5 0 81
2020-01-14 06:00:00 9.2 0 Calma 6 Norte -- 1022.1 -0.7 80
2020-01-14 05:00:00 9.6 3 Norte 7 Norte -- 1022.1 -1 80
2020-01-14 04:00:00 9.2 0 Calma 5 Noroeste -- 1022.5 -1.1 79
2020-01-14 03:00:00 9.6 0 Calma 8 Oeste -- 1022.8 -1.2 77
2020-01-14 02:00:00 9.8 2 Norte 6 Noroeste -- 1023.1 -1 77
2020-01-14 01:00:00 9.9 2 Noroeste 9 Nordeste -- 1023.6 -0.6 77
2020-01-14 00:00:00 10.3 4 Norte 8 Nordeste -- 1024 -0.8 76
2020-01-13 23:00:00 10.5 4 Nordeste 6 Nordeste -- 1024.1 -0.9 74
2020-01-13 22:00:00 12.2 4 Noroeste 11 Oeste -- 1024.2 -0.9 69
2020-01-13 21:00:00 12.4 4 Noroeste 10 Noroeste -- 1024.8 0.1 69
2020-01-13 20:00:00 12.3 3 Noroeste 6 Sudoeste -- 1025 0.3 69
2020-01-13 19:00:00 12.6 3 Sudoeste 8 Sudoeste -- 1025.1 0.1 66
2020-01-13 18:00:00 14.3 4 Sur 9 Sur -- 1024.7 -0.4 60
2020-01-13 17:00:00 15.2 5 Sur 11 Sudeste -- 1024.7 -1.1 57
2020-01-13 16:00:00 15.5 5 Sur 11 Sudeste -- 1025 -1.9 56
2020-01-13 15:00:00 16.4 5 Sudeste 13 Sudeste -- 1025.1 -2.5 51
2020-01-13 14:00:00 16.5 8 Sudeste 17 Este -- 1025.8 -2 54
2020-01-13 13:00:00 15.9 9 Este 17 Este -- 1026.9 -0.5 56
2020-01-13 12:00:00 15.4 12 Este 19 Este -- 1027.6 0.7 58
2020-01-13 11:00:00 15.6 10 Este 19 Este -- 1027.8 0.9 57
2020-01-13 10:00:00 13.5 7 Nordeste 14 Nordeste -- 1027.4 0.6 65
2020-01-13 09:00:00 10.5 2 Norte 10 Nordeste -- 1026.9 0.1 73
2020-01-13 08:00:00 10.5 2 Norte 8 Nordeste -- 1026.9 -0.2 74
2020-01-13 07:00:00 10.8 2 Noroeste 8 Nordeste -- 1026.8 -0.7 75
2020-01-13 06:00:00 11 2 Noroeste 12 Nordeste -- 1026.8 -0.9 75
2020-01-13 05:00:00 11.1 3 Norte 11 Nordeste -- 1027.1 -0.8 74
2020-01-13 04:00:00 11 3 Noroeste 11 Nordeste -- 1027.5 -0.9 72
2020-01-13 03:00:00 10.8 4 Norte 11 Nordeste -- 1027.7 -1.3 70
2020-01-13 02:00:00 10.9 2 Noroeste 8 Norte -- 1027.9 -1 70
2020-01-13 01:00:00 11.1 2 Noroeste 7 Oeste -- 1028.4 -0.3 75
2020-01-13 00:00:00 11.4 2 Oeste 8 Nordeste -- 1029 0.3 76
2020-01-12 23:00:00 11.4 2 Oeste 7 Oeste -- 1028.9 0.3 76
2020-01-12 22:00:00 11.6 3 Noroeste 7 Oeste -- 1028.7 0.5 76
2020-01-12 21:00:00 12 2 Noroeste 5 Oeste -- 1028.7 0.9 74
2020-01-12 20:00:00 12.3 0 Calma 6 Oeste -- 1028.6 0.8 73
2020-01-12 19:00:00 13 2 Oeste 6 Sur -- 1028.2 0.2 69
2020-01-12 18:00:00 14.6 3 Sur 9 Sur -- 1027.8 -0.2 64
2020-01-12 17:00:00 15.4 5 Sur 10 Sur -- 1027.8 -1 62
2020-01-12 16:00:00 16.1 5 Sur 10 Sur -- 1028 -1.7 60
2020-01-12 15:00:00 16.8 4 Sudeste 10 Sudeste -- 1028 -2.7 57
2020-01-12 14:00:00 17.5 5 Sur 11 Sudeste -- 1028.8 -2 56
2020-01-12 13:00:00 16.1 7 Sudeste 12 Sudeste -- 1029.7 -0.7 59
2020-01-12 12:00:00 16.4 6 Este 13 Este -- 1030.7 0.6 56
2020-01-12 11:00:00 16.3 8 Este 14 Este -- 1030.8 1 57
2020-01-12 10:00:00 14 6 Nordeste 12 Nordeste -- 1030.4 0.6 65
2020-01-12 09:00:00 11.2 2 Oeste 8 Noroeste -- 1030.1 0.5 70
2020-01-12 08:00:00 11.1 3 Noroeste 8 Oeste -- 1029.8 -0.1 70
2020-01-12 07:00:00 11.5 3 Noroeste 8 Nordeste -- 1029.8 -0.4 70
2020-01-12 06:00:00 11.6 2 Noroeste 9 Nordeste -- 1029.6 -0.4 70
2020-01-12 05:00:00 11.9 3 Norte 10 Nordeste -- 1029.9 -0.2 69
2020-01-12 04:00:00 12.2 3 Norte 10 Nordeste -- 1030.2 -0.2 68
2020-01-12 03:00:00 12.2 3 Norte 16 Nordeste -- 1030 -0.5 66
2020-01-12 02:00:00 12.6 9 Nordeste 19 Nordeste -- 1030.1 -0.4 63
2020-01-12 01:00:00 12.7 8 Nordeste 16 Nordeste -- 1030.4 0.2 63
2020-01-12 00:00:00 12.9 6 Nordeste 19 Nordeste -- 1030.5 0.5 63
2020-01-11 23:00:00 13.1 9 Nordeste 18 Nordeste -- 1030.5 0.8 61
2020-01-11 22:00:00 13.2 7 Nordeste 15 Nordeste -- 1030.2 1 60
2020-01-11 21:00:00 13.1 4 Norte 9 Nordeste -- 1030 1.3 61
2020-01-11 20:00:00 13.1 3 Norte 14 Nordeste -- 1029.7 1.4 59
2020-01-11 19:00:00 13.9 5 Nordeste 17 Este -- 1029.2 1.2 58
2020-01-11 18:00:00 15.1 9 Este 17 Este -- 1028.7 0.8 55
2020-01-11 17:00:00 15.7 4 Este 8 Sudeste -- 1028.3 0 54
2020-01-11 16:00:00 16.1 3 Este 8 Este -- 1028 -1 57
2020-01-11 15:00:00 16.9 5 Sudeste 12 Este -- 1027.9 -1.6 56
2020-01-11 14:00:00 17.3 6 Este 11 Sudeste -- 1028.3 -1.1 56
2020-01-11 13:00:00 16.9 6 Este 14 Este -- 1029 0.5 56
2020-01-11 12:00:00 16.7 9 Este 15 Este -- 1029.5 1.7 55
2020-01-11 11:00:00 17 8 Este 15 Este -- 1029.4 2.2 54
2020-01-11 10:00:00 15 7 Nordeste 14 Nordeste -- 1028.5 1.8 61
2020-01-11 09:00:00 12.9 6 Nordeste 15 Nordeste -- 1027.8 1.4 64
2020-01-11 08:00:00 12.9 5 Nordeste 16 Nordeste -- 1027.2 0.8 62
2020-01-11 07:00:00 12.9 6 Nordeste 14 Nordeste -- 1026.7 0.4 62
2020-01-11 06:00:00 13 7 Nordeste 19 Nordeste -- 1026.4 0.2 60
2020-01-11 05:00:00 13.1 9 Nordeste 19 Nordeste -- 1026.4 0.7 56
2020-01-11 04:00:00 13 9 Nordeste 20 Nordeste -- 1026.3 0.5 51
2020-01-11 03:00:00 13 6 Nordeste 20 Nordeste -- 1026.2 0.1 46
2020-01-11 02:00:00 12.6 8 Nordeste 20 Nordeste -- 1025.7 -0.2 48
2020-01-11 01:00:00 10.9 4 Norte 12 Nordeste -- 1025.8 0.4 49
2020-01-11 00:00:00 10.1 4 Nordeste 8 Oeste -- 1026.1 1.4 58
2020-01-10 23:00:00 10.9 2 Oeste 7 Noroeste -- 1025.9 1.6 57
2020-01-10 22:00:00 11.2 0 Calma 7 Noroeste -- 1025.4 1.9 56
2020-01-10 21:00:00 11.7 0 Calma 5 Oeste -- 1024.7 1.7 57
2020-01-10 20:00:00 13.1 3 Sudoeste 11 Oeste -- 1024.3 1.9 56
2020-01-10 19:00:00 14 3 Noroeste 7 Noroeste -- 1023.5 1.3 55
2020-01-10 18:00:00 15.3 6 Oeste 14 Oeste -- 1023 0.8 54
2020-01-10 17:00:00 16.7 2 Sur 6 Este -- 1022.4 0 55
2020-01-10 16:00:00 17.2 4 Este 21 Este -- 1022.2 -1.2 48
2020-01-10 15:00:00 18.1 11 Este 31 Oeste -- 1022.2 -2.7 50
2020-01-10 14:00:00 17.8 17 Oeste 35 Sudoeste -- 1022.4 -2.8 47
2020-01-10 13:00:00 17.1 18 Oeste 34 Oeste -- 1023.4 -1.7 51
2020-01-10 12:00:00 15.7 19 Oeste 32 Sudoeste -- 1024.9 0.3 58
2020-01-10 11:00:00 14.7 5 Sudoeste 9 Oeste -- 1025.2 0.7 62
2020-01-10 10:00:00 12.7 2 Oeste 10 Nordeste -- 1025.1 0.7 68
2020-01-10 09:00:00 10.6 3 Norte 11 Oeste -- 1024.6 0.7 73
2020-01-10 08:00:00 10.5 6 Oeste 10 Noroeste -- 1024.5 0.8 75
2020-01-10 07:00:00 10.3 4 Oeste 8 Oeste -- 1024.4 -0.2 76
2020-01-10 06:00:00 9.8 4 Sudeste 9 Sudeste -- 1023.9 -1.1 74
2020-01-10 05:00:00 10 3 Nordeste 10 Oeste -- 1023.7 -1.5 72
2020-01-10 04:00:00 11.2 6 Oeste 10 Noroeste -- 1024.6 -1.1 71
2020-01-10 03:00:00 10.5 4 Noroeste 9 Noroeste -- 1025 -1.3 74
2020-01-10 02:00:00 10.3 3 Noroeste 6 Noroeste -- 1025.2 -1.1 76
2020-01-10 01:00:00 10.1 3 Norte 5 Noroeste -- 1025.7 -0.5 75
2020-01-10 00:00:00 10.5 2 Norte 6 Nordeste -- 1026.3 -0.3 72
2020-01-09 23:00:00 11.8 3 Oeste 16 Oeste -- 1026.3 -0.5 68
2020-01-09 22:00:00 12.3 7 Oeste 14 Oeste -- 1026.2 -0.2 68
2020-01-09 21:00:00 12.9 6 Oeste 11 Oeste -- 1026.6 0.6 66
2020-01-09 20:00:00 13.3 5 Oeste 8 Oeste -- 1026.8 0.6 70
2020-01-09 19:00:00 14.2 3 Oeste 6 Oeste -- 1026.4 0.3 68
2020-01-09 18:00:00 14.9 2 Este 5 Sudeste -- 1026 -0.3 66
2020-01-09 17:00:00 15.2 2 Este 8 Este -- 1026.2 -0.6 65
2020-01-09 16:00:00 15.8 5 Este 15 Este -- 1026.1 -1.7 64
2020-01-09 15:00:00 16.6 8 Este 14 Este -- 1026.3 -2.2 61
2020-01-09 14:00:00 16.6 8 Este 18 Este -- 1026.8 -1.7 61
2020-01-09 13:00:00 16 12 Este 19 Este -- 1027.8 -0.3 61
2020-01-09 12:00:00 15.3 8 Nordeste 19 Este -- 1028.5 1 64
2020-01-09 11:00:00 14.6 9 Nordeste 16 Nordeste -- 1028.5 1.2 65
2020-01-09 10:00:00 13.5 6 Nordeste 13 Nordeste -- 1028.1 0.7 66
2020-01-09 09:00:00 12.5 2 Norte 9 Nordeste -- 1027.5 0.1 68
2020-01-09 08:00:00 12.2 5 Nordeste 10 Nordeste -- 1027.3 -0.4 68
2020-01-09 07:00:00 12.3 4 Norte 13 Nordeste -- 1027.4 -0.6 69
2020-01-09 06:00:00 12.2 5 Nordeste 15 Nordeste -- 1027.4 -0.9 71
2020-01-09 05:00:00 12.4 7 Nordeste 17 Nordeste -- 1027.7 -0.8 70
2020-01-09 04:00:00 12.4 9 Nordeste 18 Nordeste -- 1028 -0.7 70
2020-01-09 03:00:00 12.8 8 Nordeste 23 Nordeste -- 1028.3 -0.7 69
2020-01-09 02:00:00 12.8 10 Nordeste 22 Nordeste -- 1028.5 -0.4 69
2020-01-09 01:00:00 12.6 8 Nordeste 21 Nordeste -- 1028.7 0.2 71
2020-01-09 00:00:00 12.7 8 Nordeste 18 Nordeste -- 1029 0.8 73
2020-01-08 23:00:00 13 9 Nordeste 19 Nordeste -- 1028.9 1.2 74
2020-01-08 22:00:00 13.3 8 Nordeste 17 Nordeste -- 1028.5 1.1 75
2020-01-08 21:00:00 13.3 8 Nordeste 18 Nordeste -- 1028.2 1.2 76
2020-01-08 20:00:00 12.8 7 Nordeste 13 Nordeste -- 1027.7 0.9 76
2020-01-08 19:00:00 12.9 4 Nordeste 9 Este -- 1027.4 0.7 74
2020-01-08 18:00:00 14.2 4 Sudeste 9 Este -- 1027 0.2 70
2020-01-08 17:00:00 14.9 3 Sudeste 9 Sudeste -- 1026.8 -0.3 69
2020-01-08 16:00:00 15.2 4 Sudeste 9 Sudeste -- 1026.7 -1.2 67
2020-01-08 15:00:00 15.8 5 Sur 12 Sudeste -- 1026.8 -2 66
2020-01-08 14:00:00 16.3 5 Sudeste 12 Este -- 1027.1 -1.7 65
2020-01-08 13:00:00 15.4 7 Este 11 Sudeste -- 1027.9 -0.7 69
2020-01-08 12:00:00 15.2 6 Este 12 Este -- 1028.8 0.8 69
2020-01-08 11:00:00 15.2 3 Sudeste 6 Sudeste -- 1028.8 1.2 69
2020-01-08 10:00:00 12.4 0 Calma 5 Noroeste -- 1028.6 1.3 80
2020-01-08 09:00:00 10.6 2 Noroeste 8 Norte -- 1028 0.8 79
2020-01-08 08:00:00 10.7 4 Noroeste 6 Norte -- 1027.6 0 79
2020-01-08 07:00:00 11 6 Noroeste 8 Noroeste -- 1027.3 -0.5 79
2020-01-08 06:00:00 11 5 Noroeste 8 Noroeste -- 1027.2 -1 79
2020-01-08 05:00:00 11.1 5 Norte 7 Noroeste -- 1027.6 -0.7 79
2020-01-08 04:00:00 11.3 3 Norte 8 Norte -- 1027.8 -1.1 79
2020-01-08 03:00:00 11.4 5 Noroeste 8 Norte -- 1028.2 -1.3 79
2020-01-08 02:00:00 11.5 4 Noroeste 8 Noroeste -- 1028.3 -1.5 79
2020-01-08 01:00:00 11.6 3 Noroeste 7 Noroeste -- 1028.9 -0.9 79
2020-01-08 00:00:00 11.6 2 Noroeste 7 Noroeste -- 1029.5 0 79
2020-01-07 23:00:00 11.7 3 Noroeste 6 Noroeste -- 1029.8 0.3 78
2020-01-07 22:00:00 11.7 3 Noroeste 8 Oeste -- 1029.8 0.5 77
2020-01-07 21:00:00 12 0 Calma 8 Noroeste -- 1029.5 0.5 75
2020-01-07 20:00:00 12.3 2 Noroeste 9 Nordeste -- 1029.5 0.6 74
2020-01-07 19:00:00 13.2 5 Nordeste 14 Este -- 1029.3 0.4 72
2020-01-07 18:00:00 14.3 8 Este 15 Este -- 1029 0 68
2020-01-07 17:00:00 15.1 8 Este 15 Este -- 1028.9 -0.5 66
2020-01-07 16:00:00 15.6 7 Este 14 Este -- 1028.9 -1.3 64
2020-01-07 15:00:00 16 9 Este 16 Este -- 1029 -2 62
2020-01-07 14:00:00 16.2 9 Este 20 Este -- 1029.4 -2 62
2020-01-07 13:00:00 15.4 13 Este 23 Este -- 1030.2 -0.7 64
2020-01-07 12:00:00 15.5 12 Este 23 Este -- 1031 0.8 62
2020-01-07 11:00:00 16 9 Nordeste 19 Este -- 1031.4 1.6 58
2020-01-07 10:00:00 13.5 8 Nordeste 12 Nordeste -- 1030.9 1.4 65
2020-01-07 09:00:00 11.1 3 Norte 12 Nordeste -- 1030.2 1 68
2020-01-07 08:00:00 10.6 2 Noroeste 6 Nordeste -- 1029.8 0.6 68
2020-01-07 07:00:00 10.7 3 Noroeste 8 Este -- 1029.5 0 68
2020-01-07 06:00:00 11 2 Noroeste 13 Nordeste -- 1029.2 -0.2 68
2020-01-07 05:00:00 11.2 4 Norte 14 Nordeste -- 1029.2 -0.3 67
2020-01-07 04:00:00 11.2 6 Nordeste 15 Nordeste -- 1029.5 -0.3 66
2020-01-07 03:00:00 11.1 4 Norte 14 Nordeste -- 1029.4 -0.4 65
2020-01-07 02:00:00 11.1 3 Norte 10 Este -- 1029.5 -0.3 69
2020-01-07 01:00:00 11.4 3 Noroeste 14 Nordeste -- 1029.8 0.2 70
2020-01-07 00:00:00 11.6 5 Norte 13 Nordeste -- 1029.8 0.8 72
2020-01-06 23:00:00 12.1 6 Nordeste 15 Nordeste -- 1029.8 1.2 73
2020-01-06 22:00:00 12.1 6 Nordeste 14 Nordeste -- 1029.6 1.6 72
2020-01-06 21:00:00 12.6 8 Nordeste 15 Nordeste -- 1029 1.2 71
2020-01-06 20:00:00 12.8 8 Nordeste 14 Nordeste -- 1028.6 0.9 69
2020-01-06 19:00:00 13.2 6 Nordeste 21 Este -- 1028 0.7 68
2020-01-06 18:00:00 14.4 12 Este 19 Este -- 1027.8 0.6 64
2020-01-06 17:00:00 15 10 Este 23 Este -- 1027.7 0 62
2020-01-06 16:00:00 15.5 13 Este 26 Este -- 1027.3 -1.3 60
2020-01-06 15:00:00 15.8 15 Este 27 Este -- 1027.2 -1.8 58
2020-01-06 14:00:00 16.2 18 Este 30 Este -- 1027.7 -1.6 57
2020-01-06 13:00:00 16.1 12 Este 24 Este -- 1028.6 -0.2 55
2020-01-06 12:00:00 16 15 Este 27 Este -- 1029 0.9 55
2020-01-06 11:00:00 15.9 15 Este 28 Este -- 1029.3 1.7 57
2020-01-06 10:00:00 13.6 8 Nordeste 21 Nordeste -- 1028.8 1.9 59